createdAt,value
2017-08-09T00:00:17.224Z,74.88
2017-08-09T00:02:45.578Z,74.89
2017-08-09T00:05:14.450Z,74.30
2017-08-09T00:07:42.844Z,73.39
2017-08-09T00:10:11.965Z,72.30
2017-08-09T00:12:41.147Z,73.12
2017-08-09T00:15:12.295Z,73.36
2017-08-09T00:17:40.664Z,73.05
2017-08-09T00:20:09.312Z,72.53
2017-08-09T00:22:37.718Z,73.01
2017-08-09T00:25:06.093Z,73.35
2017-08-09T00:27:35.748Z,73.26
2017-08-09T00:30:04.135Z,72.82
2017-08-09T00:32:32.511Z,72.78
2017-08-09T00:35:01.401Z,71.69
2017-08-09T00:37:29.774Z,73.24
2017-08-09T00:39:58.144Z,73.07
2017-08-09T00:42:26.858Z,72.17
2017-08-09T00:44:55.228Z,71.86
2017-08-09T00:47:23.612Z,72.34
2017-08-09T00:49:52.488Z,72.43
2017-08-09T00:52:20.872Z,72.21
2017-08-09T00:54:49.248Z,71.59
2017-08-09T00:57:18.091Z,71.15
2017-08-09T00:59:46.468Z,71.60
2017-08-09T01:02:14.884Z,72.13
2017-08-09T01:04:43.559Z,73.05
2017-08-09T01:07:11.942Z,73.18
2017-08-09T01:09:40.318Z,72.48
2017-08-09T01:12:08.996Z,72.84
2017-08-09T01:14:37.372Z,72.13
2017-08-09T01:17:05.754Z,73.24
2017-08-09T01:19:34.801Z,72.62
2017-08-09T01:22:03.181Z,71.90
2017-08-09T01:24:31.561Z,74.14
2017-08-09T01:27:00.215Z,73.48
2017-08-09T01:29:28.592Z,73.46
2017-08-09T01:31:56.965Z,73.55
2017-08-09T01:34:25.789Z,73.41
2017-08-09T01:36:54.146Z,73.44
2017-08-09T01:39:22.543Z,72.99
2017-08-09T01:41:51.439Z,73.28
2017-08-09T01:44:19.801Z,73.31
2017-08-09T01:46:48.172Z,73.58
2017-08-09T01:49:16.863Z,72.96
2017-08-09T01:51:45.237Z,74.30
2017-08-09T01:54:13.587Z,73.55
2017-08-09T01:56:42.546Z,73.42
2017-08-09T01:59:10.994Z,72.91
2017-08-09T02:01:39.368Z,73.03
2017-08-09T02:04:08.377Z,72.52
2017-08-09T02:06:36.745Z,72.99
2017-08-09T02:09:05.140Z,74.00
2017-08-09T02:11:33.799Z,74.00
2017-08-09T02:14:02.207Z,73.20
2017-08-09T02:16:30.611Z,73.34
2017-08-09T02:18:59.483Z,74.35
2017-08-09T02:21:27.860Z,73.88
2017-08-09T02:23:56.247Z,73.19
2017-08-09T02:26:25.129Z,73.91
2017-08-09T02:28:53.510Z,73.96
2017-08-09T02:31:21.874Z,73.90
2017-08-09T02:33:50.546Z,75.12
2017-08-09T02:36:18.957Z,74.52
2017-08-09T02:38:47.336Z,74.99
2017-08-09T02:41:16.226Z,75.32
2017-08-09T02:43:44.606Z,74.53
2017-08-09T02:46:13.002Z,73.80
2017-08-09T02:48:41.973Z,73.80
2017-08-09T02:51:10.361Z,73.68
2017-08-09T02:53:38.734Z,73.16
2017-08-09T02:56:07.620Z,72.99
2017-08-09T02:58:35.979Z,73.77
2017-08-09T03:01:04.340Z,73.49
2017-08-09T03:03:33.164Z,74.03
2017-08-09T03:06:01.515Z,74.26
2017-08-09T03:08:30.652Z,73.19
2017-08-09T03:10:59.642Z,73.59
2017-08-09T03:13:28.001Z,73.84
2017-08-09T03:15:56.368Z,74.53
2017-08-09T03:18:25.019Z,74.05
2017-08-09T03:20:53.421Z,73.97
2017-08-09T03:23:22.589Z,74.80
2017-08-09T03:25:51.367Z,74.74
2017-08-09T03:28:19.759Z,73.44
2017-08-09T03:30:48.154Z,74.32
2017-08-09T03:33:16.995Z,73.98
2017-08-09T03:35:45.366Z,74.36
2017-08-09T03:38:13.753Z,74.23
2017-08-09T03:40:42.647Z,74.56
2017-08-09T03:43:11.021Z,73.97
2017-08-09T03:45:39.397Z,75.21
2017-08-09T03:48:08.322Z,74.96
2017-08-09T03:50:36.693Z,74.90
2017-08-09T03:53:05.071Z,75.87
2017-08-09T03:55:33.819Z,75.90
2017-08-09T03:58:02.179Z,74.67
2017-08-09T04:00:30.547Z,75.89
2017-08-09T04:02:59.206Z,75.79
2017-08-09T04:05:27.576Z,75.88
2017-08-09T04:07:55.949Z,75.14
2017-08-09T04:10:24.651Z,75.38
2017-08-09T04:12:53.039Z,75.72
2017-08-09T04:15:21.412Z,74.62
2017-08-09T04:17:50.270Z,74.23
2017-08-09T04:20:18.645Z,74.80
2017-08-09T04:22:47.050Z,74.34
2017-08-09T04:25:15.765Z,74.95
2017-08-09T04:27:44.149Z,74.66
2017-08-09T04:30:12.527Z,74.34
2017-08-09T04:32:41.386Z,73.46
2017-08-09T04:35:09.761Z,73.45
2017-08-09T04:37:38.217Z,72.78
2017-08-09T04:40:07.101Z,72.21
2017-08-09T04:42:36.261Z,72.44
2017-08-09T04:45:04.642Z,72.74
2017-08-09T04:47:33.487Z,71.29
2017-08-09T04:50:01.864Z,70.88
2017-08-09T04:52:30.288Z,70.70
2017-08-09T04:54:59.096Z,70.66
2017-08-09T04:57:27.496Z,71.46
2017-08-09T04:59:55.952Z,71.71
2017-08-09T05:02:24.930Z,71.05
2017-08-09T05:04:53.331Z,72.22
2017-08-09T05:07:22.504Z,72.15
2017-08-09T05:09:51.488Z,71.09
2017-08-09T05:12:19.926Z,70.22
2017-08-09T05:14:48.289Z,70.49
2017-08-09T05:17:16.946Z,70.57
2017-08-09T05:19:45.365Z,71.14
2017-08-09T05:22:13.740Z,70.53
2017-08-09T05:24:43.346Z,70.41
2017-08-09T05:27:11.780Z,70.18
2017-08-09T05:29:40.182Z,70.26
2017-08-09T05:32:08.852Z,69.13
2017-08-09T05:34:37.274Z,68.65
2017-08-09T05:37:05.690Z,68.45
2017-08-09T05:39:34.336Z,69.00
2017-08-09T05:42:02.770Z,68.17
2017-08-09T05:44:31.203Z,67.98
2017-08-09T05:47:00.228Z,67.34
2017-08-09T05:49:28.632Z,67.08
2017-08-09T05:51:57.056Z,68.29
2017-08-09T05:54:26.029Z,69.29
2017-08-09T05:56:54.522Z,68.67
2017-08-09T05:59:22.907Z,68.43
2017-08-09T06:01:51.900Z,68.39
2017-08-09T06:04:21.033Z,67.75
2017-08-09T06:06:49.403Z,67.50
2017-08-09T06:09:18.445Z,66.84
2017-08-09T06:11:46.860Z,67.80
2017-08-09T06:14:15.284Z,67.69
2017-08-09T06:16:44.159Z,67.40
2017-08-09T06:19:12.510Z,65.87
2017-08-09T06:21:40.897Z,65.63
2017-08-09T06:24:09.545Z,65.52
2017-08-09T06:26:37.898Z,65.96
2017-08-09T06:29:06.715Z,64.28
2017-08-09T06:31:35.591Z,64.07
2017-08-09T06:34:03.992Z,64.96
2017-08-09T06:36:32.395Z,64.96
2017-08-09T06:39:01.119Z,64.64
2017-08-09T06:41:29.505Z,65.31
2017-08-09T06:43:57.905Z,65.07
2017-08-09T06:46:26.782Z,65.31
2017-08-09T06:48:55.163Z,65.00
2017-08-09T06:51:23.568Z,63.60
2017-08-09T06:53:52.323Z,62.32
2017-08-09T06:56:20.701Z,61.98
2017-08-09T06:58:49.084Z,61.08
2017-08-09T07:01:17.875Z,60.33
2017-08-09T07:03:46.258Z,60.36
2017-08-09T07:06:14.661Z,60.96
2017-08-09T07:08:43.346Z,60.38
2017-08-09T07:11:12.515Z,59.64
2017-08-09T07:13:40.871Z,59.62
2017-08-09T07:16:09.758Z,58.90
2017-08-09T07:18:38.204Z,59.64
2017-08-09T07:21:06.631Z,60.19
2017-08-09T07:23:35.414Z,59.88
2017-08-09T07:26:03.788Z,58.31
2017-08-09T07:28:32.166Z,56.03
2017-08-09T07:31:01.098Z,56.38
2017-08-09T07:33:29.454Z,55.48
2017-08-09T07:35:57.828Z,55.99
2017-08-09T07:38:26.650Z,58.32
2017-08-09T07:40:55.067Z,57.44
2017-08-09T07:43:24.206Z,56.13
2017-08-09T07:45:53.012Z,55.59
2017-08-09T07:48:21.410Z,54.50
2017-08-09T07:50:49.777Z,54.23
2017-08-09T07:53:18.451Z,53.31
2017-08-09T07:55:46.816Z,53.79
2017-08-09T07:58:15.201Z,53.75
2017-08-09T08:00:44.310Z,54.51
2017-08-09T08:03:12.688Z,57.00
2017-08-09T08:05:41.073Z,55.11
2017-08-09T08:08:10.021Z,56.70
2017-08-09T08:10:38.400Z,56.38
2017-08-09T08:13:06.860Z,55.91
2017-08-09T08:15:35.830Z,55.80
2017-08-09T08:18:04.240Z,53.90
2017-08-09T08:20:32.627Z,52.46
2017-08-09T08:23:01.592Z,50.68
2017-08-09T08:25:30.020Z,49.88
2017-08-09T08:27:58.400Z,50.83
2017-08-09T08:30:27.197Z,51.60
2017-08-09T08:32:55.570Z,51.73
2017-08-09T08:35:23.949Z,51.32
2017-08-09T08:37:52.704Z,50.56
2017-08-09T08:40:21.123Z,51.08
2017-08-09T08:42:49.509Z,51.93
2017-08-09T08:45:18.420Z,51.75
2017-08-09T08:47:46.821Z,51.07
2017-08-09T08:50:15.188Z,50.76
2017-08-09T08:52:43.911Z,51.28
2017-08-09T08:55:13.139Z,50.53
2017-08-09T08:57:41.535Z,48.40
2017-08-09T09:00:10.201Z,49.58
2017-08-09T09:02:38.550Z,50.51
2017-08-09T09:05:06.924Z,50.47
2017-08-09T09:07:36.633Z,50.74
2017-08-09T09:10:05.073Z,49.36
2017-08-09T09:12:33.496Z,47.09
2017-08-09T09:15:02.192Z,47.21
2017-08-09T09:17:30.558Z,49.18
2017-08-09T09:19:58.939Z,50.72
2017-08-09T09:22:27.732Z,51.81
2017-08-09T09:24:56.886Z,50.56
2017-08-09T09:27:25.286Z,47.75
2017-08-09T09:29:54.117Z,47.55
2017-08-09T09:32:22.493Z,48.11
2017-08-09T09:34:50.962Z,47.74
2017-08-09T09:37:20.680Z,47.12
2017-08-09T09:39:49.936Z,47.97
2017-08-09T09:42:18.353Z,48.38
2017-08-09T09:44:47.394Z,49.41
2017-08-09T09:47:15.759Z,50.47
2017-08-09T09:49:44.150Z,49.35
2017-08-09T09:52:12.999Z,49.55
2017-08-09T09:54:42.243Z,48.80
2017-08-09T09:57:10.757Z,49.85
2017-08-09T09:59:39.748Z,47.85
2017-08-09T10:02:08.211Z,45.77
2017-08-09T10:04:36.722Z,44.56
2017-08-09T10:07:05.486Z,43.83
2017-08-09T10:09:33.885Z,44.30
2017-08-09T10:12:02.259Z,44.91
2017-08-09T10:14:31.363Z,46.21
2017-08-09T10:16:59.732Z,46.55
2017-08-09T10:19:28.158Z,45.02
2017-08-09T10:21:56.968Z,43.61
2017-08-09T10:24:25.419Z,43.27
2017-08-09T10:26:53.800Z,43.26
2017-08-09T10:29:22.507Z,44.92
2017-08-09T10:31:50.944Z,46.73
2017-08-09T10:34:19.310Z,46.56
2017-08-09T10:36:48.100Z,46.91
2017-08-09T10:39:17.364Z,47.30
2017-08-09T10:41:45.753Z,47.11
2017-08-09T10:44:14.490Z,47.68
2017-08-09T10:46:42.938Z,47.56
2017-08-09T10:49:11.332Z,48.70
2017-08-09T10:51:41.147Z,49.16
2017-08-09T10:54:09.566Z,48.91
2017-08-09T10:56:37.943Z,47.92
2017-08-09T10:59:06.939Z,48.63
2017-08-09T11:01:35.365Z,49.07
2017-08-09T11:04:03.765Z,49.81
2017-08-09T11:06:32.508Z,50.50
2017-08-09T11:09:00.904Z,48.80
2017-08-09T11:11:29.280Z,47.39
2017-08-09T11:13:58.057Z,46.97
2017-08-09T11:16:26.422Z,48.06
2017-08-09T11:18:54.804Z,46.91
2017-08-09T11:21:23.713Z,45.48
2017-08-09T11:23:52.146Z,46.42
2017-08-09T11:26:20.622Z,45.38
2017-08-09T11:28:50.175Z,45.81
2017-08-09T11:31:18.589Z,44.86
2017-08-09T11:33:47.400Z,46.30
2017-08-09T11:36:16.275Z,45.99
2017-08-09T11:38:44.660Z,45.02
2017-08-09T11:41:13.036Z,44.18
2017-08-09T11:43:42.021Z,43.53
2017-08-09T11:46:10.419Z,44.52
2017-08-09T11:48:38.809Z,43.29
2017-08-09T11:51:08.499Z,44.36
2017-08-09T11:53:36.900Z,44.85
2017-08-09T11:56:05.321Z,44.98
2017-08-09T11:58:34.125Z,42.47
2017-08-09T12:01:02.573Z,40.85
2017-08-09T12:03:30.973Z,40.35
2017-08-09T12:06:00.062Z,40.74
2017-08-09T12:08:28.550Z,41.23
2017-08-09T12:10:56.972Z,40.98
2017-08-09T12:13:25.669Z,40.61
2017-08-09T12:15:54.840Z,40.65
2017-08-09T12:18:23.248Z,40.57
2017-08-09T12:20:52.329Z,41.47
2017-08-09T12:23:20.703Z,42.67
2017-08-09T12:25:49.074Z,43.05
2017-08-09T12:28:18.140Z,43.05
2017-08-09T12:30:46.555Z,43.76
2017-08-09T12:33:14.934Z,43.71
2017-08-09T12:35:43.809Z,43.17
2017-08-09T12:38:12.252Z,40.65
2017-08-09T12:40:40.634Z,40.00
2017-08-09T12:43:09.295Z,39.93
2017-08-09T12:45:37.765Z,40.37
2017-08-09T12:48:06.891Z,42.07
2017-08-09T12:50:36.661Z,43.84
2017-08-09T12:53:05.048Z,44.37
2017-08-09T12:55:34.233Z,42.47
2017-08-09T12:58:03.249Z,40.76
2017-08-09T13:00:31.631Z,39.36
2017-08-09T13:03:00.003Z,40.87
2017-08-09T13:05:28.834Z,39.65
2017-08-09T13:07:57.193Z,39.04
2017-08-09T13:10:25.613Z,38.05
2017-08-09T13:12:54.588Z,37.16
2017-08-09T13:15:22.957Z,37.63
2017-08-09T13:17:51.323Z,37.51
2017-08-09T13:20:20.728Z,36.71
2017-08-09T13:22:49.119Z,36.39
2017-08-09T13:25:17.504Z,34.99
2017-08-09T13:27:46.261Z,36.90
2017-08-09T13:30:14.649Z,37.14
2017-08-09T13:32:43.059Z,37.38
2017-08-09T13:35:12.067Z,37.95
2017-08-09T13:37:40.441Z,37.07
2017-08-09T13:40:08.789Z,36.87
2017-08-09T13:42:37.638Z,36.84
2017-08-09T13:45:06.023Z,37.06
2017-08-09T13:47:34.380Z,36.05
2017-08-09T13:50:03.084Z,36.68
2017-08-09T13:52:31.462Z,36.11
2017-08-09T13:54:59.813Z,36.34
2017-08-09T13:57:28.762Z,36.53
2017-08-09T13:59:57.113Z,36.30
2017-08-09T14:02:25.504Z,36.56
2017-08-09T14:04:54.240Z,35.73
2017-08-09T14:07:22.617Z,35.65
2017-08-09T14:09:50.969Z,36.56
2017-08-09T14:12:19.691Z,36.60
2017-08-09T14:14:48.137Z,37.04
2017-08-09T14:17:16.533Z,36.86
2017-08-09T14:19:45.532Z,37.10
2017-08-09T14:22:13.892Z,37.05
2017-08-09T14:24:42.241Z,36.91
2017-08-09T14:27:11.201Z,37.38
2017-08-09T14:29:39.576Z,36.24
2017-08-09T14:32:07.992Z,36.43
2017-08-09T14:34:36.700Z,37.80
2017-08-09T14:37:05.859Z,37.75
2017-08-09T14:39:34.231Z,39.03
2017-08-09T14:42:03.006Z,39.01
2017-08-09T14:44:31.380Z,36.59
2017-08-09T14:46:59.750Z,36.56
2017-08-09T14:49:28.440Z,36.49
2017-08-09T14:51:56.814Z,37.85
2017-08-09T14:54:25.226Z,37.05
2017-08-09T14:56:53.940Z,36.46
2017-08-09T14:59:22.287Z,35.75
2017-08-09T15:01:50.640Z,35.84
2017-08-09T15:04:19.647Z,35.71
2017-08-09T15:06:48.031Z,35.71
2017-08-09T15:09:16.392Z,36.30
2017-08-09T15:11:45.027Z,35.76
2017-08-09T15:14:13.376Z,35.17
2017-08-09T15:16:41.745Z,35.55
2017-08-09T15:19:10.771Z,35.60
2017-08-09T15:21:39.128Z,35.49
2017-08-09T15:24:07.553Z,35.95
2017-08-09T15:26:36.541Z,36.22
2017-08-09T15:29:04.910Z,36.45
2017-08-09T15:31:33.269Z,36.94
2017-08-09T15:34:01.914Z,36.83
2017-08-09T15:36:30.267Z,36.54
2017-08-09T15:38:58.616Z,36.00
2017-08-09T15:41:27.353Z,36.16
2017-08-09T15:43:56.498Z,36.89
2017-08-09T15:46:24.859Z,38.24
2017-08-09T15:48:53.739Z,39.10
2017-08-09T15:51:22.116Z,38.89
2017-08-09T15:53:50.536Z,38.95
2017-08-09T15:56:19.686Z,39.28
2017-08-09T15:58:48.133Z,39.32
2017-08-09T16:01:16.482Z,38.67
2017-08-09T16:03:45.456Z,38.02
2017-08-09T16:06:13.830Z,38.51
2017-08-09T16:08:42.280Z,37.84
2017-08-09T16:11:11.239Z,36.99
2017-08-09T16:13:39.592Z,37.19
2017-08-09T16:16:08.016Z,37.26
2017-08-09T16:18:36.689Z,36.90
2017-08-09T16:21:05.078Z,37.87
2017-08-09T16:23:33.521Z,38.13
2017-08-09T16:26:02.245Z,37.62
2017-08-09T16:28:30.645Z,37.97
2017-08-09T16:30:59.021Z,37.53
2017-08-09T16:33:28.830Z,37.61
2017-08-09T16:35:57.230Z,37.45
2017-08-09T16:38:26.466Z,37.87
2017-08-09T16:40:55.413Z,38.33
2017-08-09T16:43:23.774Z,37.54
2017-08-09T16:45:52.168Z,37.95
2017-08-09T16:48:21.061Z,37.54
2017-08-09T16:50:49.460Z,38.46
2017-08-09T16:53:17.852Z,39.56
2017-08-09T16:55:46.588Z,39.68
2017-08-09T16:58:15.003Z,39.73
2017-08-09T17:00:43.381Z,40.16
2017-08-09T17:03:12.126Z,39.51
2017-08-09T17:05:40.500Z,39.27
2017-08-09T17:08:08.891Z,39.14
2017-08-09T17:10:37.626Z,39.29
2017-08-09T17:13:06.031Z,39.31
2017-08-09T17:15:34.442Z,39.21
2017-08-09T17:18:03.449Z,38.91
2017-08-09T17:20:31.877Z,39.00
2017-08-09T17:23:00.248Z,39.72
2017-08-09T17:25:28.885Z,39.30
2017-08-09T17:27:57.288Z,39.09
2017-08-09T17:30:25.672Z,39.02
2017-08-09T17:32:55.078Z,40.26
2017-08-09T17:35:23.467Z,40.86
2017-08-09T17:37:51.831Z,40.76
2017-08-09T17:40:20.788Z,40.92
2017-08-09T17:42:49.165Z,40.27
2017-08-09T17:45:17.526Z,40.33
2017-08-09T17:47:46.442Z,40.56
2017-08-09T17:50:14.818Z,40.91
2017-08-09T17:52:43.225Z,40.41
2017-08-09T17:55:11.926Z,40.65
2017-08-09T17:57:40.333Z,40.96
2017-08-09T18:00:09.651Z,41.59
2017-08-09T18:02:38.377Z,41.42
2017-08-09T18:05:06.787Z,41.79
2017-08-09T18:07:35.131Z,41.69
2017-08-09T18:10:03.856Z,42.06
2017-08-09T18:12:32.251Z,42.21
2017-08-09T18:15:00.639Z,43.01
2017-08-09T18:17:29.347Z,42.84
2017-08-09T18:19:57.799Z,43.12
2017-08-09T18:22:26.230Z,43.42
2017-08-09T18:24:55.108Z,43.15
2017-08-09T18:27:23.484Z,42.85
2017-08-09T18:29:51.884Z,43.00
2017-08-09T18:32:20.784Z,43.23
2017-08-09T18:34:49.913Z,43.78
2017-08-09T18:37:18.354Z,44.04
2017-08-09T18:39:47.251Z,44.32
2017-08-09T18:42:16.393Z,44.73
2017-08-09T18:44:44.769Z,45.01
2017-08-09T18:47:13.689Z,45.03
2017-08-09T18:49:42.064Z,45.14
2017-08-09T18:52:10.441Z,45.05
2017-08-09T18:54:39.230Z,45.20
2017-08-09T18:57:07.585Z,45.24
2017-08-09T18:59:35.927Z,45.28
2017-08-09T19:02:04.967Z,45.64
2017-08-09T19:04:33.361Z,46.23
2017-08-09T19:07:01.775Z,47.80
2017-08-09T19:09:31.076Z,48.26
2017-08-09T19:12:00.208Z,49.13
2017-08-09T19:14:28.577Z,50.29
2017-08-09T19:16:57.230Z,51.08
2017-08-09T19:19:25.718Z,51.48
2017-08-09T19:21:54.098Z,51.71
2017-08-09T19:24:23.816Z,51.70
2017-08-09T19:26:52.936Z,52.36
2017-08-09T19:29:21.352Z,52.80
2017-08-09T19:31:50.117Z,53.43
2017-08-09T19:34:18.546Z,53.61
2017-08-09T19:36:52.313Z,54.48
2017-08-09T19:39:20.687Z,54.85
2017-08-09T19:41:49.031Z,55.17
2017-08-09T19:44:17.696Z,55.86
2017-08-09T19:46:46.087Z,55.00
2017-08-09T19:49:14.471Z,55.96
2017-08-09T19:51:43.281Z,56.62
2017-08-09T19:54:11.650Z,57.24
2017-08-09T19:56:40.053Z,58.11
2017-08-09T19:59:08.713Z,57.86
2017-08-09T20:01:38.156Z,57.93
2017-08-09T20:04:06.484Z,57.96
2017-08-09T20:06:35.316Z,57.69
2017-08-09T20:09:03.690Z,58.20
2017-08-09T20:11:32.044Z,58.67
2017-08-09T20:14:00.939Z,58.19
2017-08-09T20:16:29.282Z,58.71
2017-08-09T20:18:57.634Z,58.83
2017-08-09T20:21:26.484Z,58.90
2017-08-09T20:23:54.858Z,59.49
2017-08-09T20:26:23.236Z,59.39
2017-08-09T20:28:52.713Z,59.49
2017-08-09T20:31:21.088Z,59.86
2017-08-09T20:33:49.497Z,59.67
2017-08-09T20:36:19.208Z,59.92
2017-08-09T20:38:48.436Z,59.89
2017-08-09T20:41:16.843Z,60.38
2017-08-09T20:43:45.614Z,60.09
2017-08-09T20:46:13.995Z,61.30
2017-08-09T20:48:42.368Z,61.43
2017-08-09T20:51:11.088Z,62.37
2017-08-09T20:53:39.448Z,62.68
2017-08-09T20:56:07.839Z,62.46
2017-08-09T20:58:36.609Z,62.45
2017-08-09T21:01:04.974Z,62.73
2017-08-09T21:03:33.353Z,63.02
2017-08-09T21:06:02.029Z,63.19
2017-08-09T21:08:31.149Z,63.46
2017-08-09T21:10:59.515Z,63.92
2017-08-09T21:13:28.436Z,64.08
2017-08-09T21:15:56.807Z,64.54
2017-08-09T21:18:25.164Z,65.06
2017-08-09T21:20:54.078Z,65.12
2017-08-09T21:23:22.432Z,65.27
2017-08-09T21:25:50.981Z,66.05
2017-08-09T21:28:19.607Z,66.06
2017-08-09T21:30:47.983Z,65.97
2017-08-09T21:33:16.399Z,65.75
2017-08-09T21:35:45.053Z,65.96
2017-08-09T21:38:13.423Z,66.46
2017-08-09T21:40:41.816Z,66.97
2017-08-09T21:43:10.695Z,66.84
2017-08-09T21:45:39.093Z,66.36
2017-08-09T21:48:07.475Z,66.52
2017-08-09T21:50:36.273Z,66.26
2017-08-09T21:53:04.641Z,66.54
2017-08-09T21:55:33.011Z,66.70
2017-08-09T21:58:01.651Z,66.47
2017-08-09T22:00:30.007Z,67.26
2017-08-09T22:02:58.357Z,66.95
2017-08-09T22:05:27.572Z,67.39
2017-08-09T22:07:55.941Z,67.53
2017-08-09T22:10:24.283Z,67.37
2017-08-09T22:12:53.060Z,67.19
2017-08-09T22:15:22.170Z,66.91
2017-08-09T22:17:51.300Z,67.53
2017-08-09T22:20:20.110Z,67.42
2017-08-09T22:22:48.488Z,67.99
2017-08-09T22:25:16.831Z,68.04
2017-08-09T22:27:45.564Z,67.53
2017-08-09T22:30:13.936Z,67.52
2017-08-09T22:32:42.307Z,67.76
2017-08-09T22:35:11.174Z,67.85
2017-08-09T22:37:39.513Z,67.63
2017-08-09T22:40:07.883Z,67.67
2017-08-09T22:42:36.511Z,67.52
2017-08-09T22:45:04.877Z,67.55
2017-08-09T22:47:33.244Z,67.34
2017-08-09T22:50:03.081Z,67.08
2017-08-09T22:52:31.430Z,67.17
2017-08-09T22:55:00.590Z,67.23
2017-08-09T22:57:29.234Z,67.58
2017-08-09T22:59:58.339Z,67.75
2017-08-09T23:02:30.610Z,68.28
2017-08-09T23:04:59.499Z,67.99
2017-08-09T23:07:27.882Z,68.74
2017-08-09T23:09:56.223Z,68.85
2017-08-09T23:12:25.169Z,69.24
2017-08-09T23:14:53.544Z,69.69
2017-08-09T23:17:21.922Z,69.49
2017-08-09T23:19:50.558Z,69.18
2017-08-09T23:22:18.908Z,69.49
2017-08-09T23:24:47.289Z,69.19
2017-08-09T23:27:15.940Z,69.29
2017-08-09T23:29:44.291Z,69.15
2017-08-09T23:32:12.704Z,69.17
2017-08-09T23:34:42.511Z,69.49
2017-08-09T23:37:10.859Z,69.47
2017-08-09T23:39:39.242Z,69.01
2017-08-09T23:42:08.149Z,69.17
2017-08-09T23:44:36.502Z,69.83
2017-08-09T23:47:04.853Z,70.37
2017-08-09T23:49:33.614Z,70.52
2017-08-09T23:52:01.965Z,70.56
2017-08-09T23:54:31.077Z,70.75
2017-08-09T23:56:59.798Z,70.67
2017-08-09T23:59:28.181Z,70.93
